Vliegveldwaarnemingen Nederland - (AUTO) METAR

Luchtvaartmeteorologische informatie voor operationeel gebruik en vluchtvoorbereiding is beschikbaar op www.luchtvaartmeteo.nl.

ZCZC
SA012155 EHKD     DE KOOY/DE KOOY   NLD   1 m.
METAR EHKD 012155Z AUTO 20006KT 9999 FEW015CB OVC071 12/11 Q1005 REDZ
 BLU=

ZCZC
SA012155 EHFD     F3-FB-1   NLD   50 m.
METAR EHFD 012155Z AUTO 05015KT 9999 SCT016/// SCT019/// BKN024///
14/09 Q1005=

ZCZC
SA012155 EHAM     AMSTERDAM/SCHIPHOL   NLD   -3 m.
METAR EHAM 012155Z 18010KT 9999 VCSH FEW020CB 11/10 Q1006 NOSIG=

ZCZC
SA012155 EHVL     VLIELAND   NLD   10 m.
METAR EHVL 012155Z AUTO 20011KT 9999 DZRA FEW007 FEW015CB SCT049
BKN055 13/12 Q1005 RERA REDZ BLU=

ZCZC
SA012155 EHJR     K13-A   NLD   37 m.
METAR EHJR 012155Z NIL=

ZCZC
SA012155 EHLW     LEEUWARDEN/LEEUWARDEN   NLD   1 m.
METAR EHLW 012155Z AUTO 17008KT 130V200 9999 BKN130 11/10 Q1005 BLU=

ZCZC
SA012155 EHDL     ARNHEM/DEELEN   NLD   48 m.
METAR EHDL 012155Z AUTO 20007KT 150V230 9999 FEW091 OVC110 11/10
Q1007 BLU=

ZCZC
SA012155 EHGG     GRONINGEN/EELDE   NLD   5 m.
METAR EHGG 012155Z AUTO 17006KT 9999 NCD 10/09 Q1006=

ZCZC
SA012155 EHSC     LICHTEILAND GOEREE   NLD   22 m.
METAR EHSC 012155Z NIL=

ZCZC
SA012155 EHSA     EURO PLATFORM   NLD   19 m.
METAR EHSA 012155Z NIL=

ZCZC
SA012155 EHWO     WOENSDRECHT/WOENSDRECHT   NLD   19 m.
METAR EHWO 012155Z AUTO 21005KT 180V250 9999 FEW044 SCT048 12/09
Q1008 BLU=

ZCZC
SA012155 EHRD     ROTTERDAM/THE HAGUE AIRPORT   NLD   -5 m.
METAR EHRD 012155Z AUTO 19011KT 150V210 9999 NCD 12/10 Q1007 NOSIG=

ZCZC
SA012155 EHGR     GILZE-RIJEN/GILZE-RIJEN   NLD   14 m.
METAR EHGR 012155Z AUTO 20008KT 150V240 9999 NCD 11/09 Q1008 BLU=

ZCZC
SA012155 EHEH RRA EINDHOVEN/EINDHOVEN   NLD   22 m.
METAR EHEH 012155Z AUTO 21008KT 9999 NCD 11/10 Q1008 BLU=

ZCZC
SA012155 EHVK     VOLKEL/VOLKEL   NLD   21 m.
METAR EHVK 012155Z AUTO 22009KT 180V240 9999 OVC100 12/10 Q1008 BLU=

ZCZC
SA012155 EHBK     MAASTRICHT/MAASTRICHT-AACHEN   NLD   114 m.
METAR EHBK 012155Z AUTO 21005KT 9999 NCD 10/09 Q1009=

ZCZC
SA012155 EHFZ     F16-A   NLD   43 m.
METAR EHFZ 012155Z AUTO 02017KT 2000 +RA FEW005 SCT014 SCT015CB
BKN017 12/10 Q1005=

ZCZC
SA012155 EHKV     K14-FA-1C   NLD   41 m.
METAR EHKV 012155Z AUTO VRB02KT 9999 -RA SCT022CB SCT026 15/10 Q1005=

ZCZC
SA012155 EHMG     L9-FF-1   NLD   44 m.
METAR EHMG 012155Z AUTO 20004KT 9999 -SHRA FEW022CB 14/09 Q1005=

ZCZC
SA012155 EHMA     AWG-1   NLD   40 m.
METAR EHMA 012155Z AUTO 19015KT 9999 NSC 12/11 Q1005=

ZCZC
SA012155 EHDV     D15-FA-1   NLD   42 m.
METAR EHDV 012155Z AUTO VRB15KT 9999 FEW041/// 14/10 Q1006=

ZCZC
SA012155 EHAK     A12-CPP   NLD   48 m.
METAR EHAK 012155Z AUTO 07014KT 9999 FEW019/// 14/10 Q1007=

ZCZC
SA012155 EHQE     HOORN-A   NLD   50 m.
METAR EHQE 012155Z AUTO 27006KT 240V300 9999 FEW017 15/10 Q1005=

ZCZC
SA012155 EHJA     J6-A   NLD   45 m.
METAR EHJA 012155Z AUTO 34003KT 280V030 9999 -SHRA FEW049/// 13/10
Q1005=

ZCZC
SA012155 EHPG     P11-B   NLD   41 m.
METAR EHPG 012155Z AUTO 24018KT 230V310 9999 FEW027 FEW032CB 16/07
Q1005=

ZCZC
SA012155 EHHW     BUITENGAATS/BG-OHVS2      42 m.
METAR EHHW 012155Z AUTO VRB06KT 9999 BKN015/// OVC018/// 15/11 Q1005=

ZCZC
SA012155 EHFS     VLISSINGEN AWS   NLD   8 m.
METAR EHFS 012155Z AUTO 21016KT 9999 FEW042/// SCT046/// 13/11 Q1007=

02/10/2016 00.15 uur LT